Time;durP1;ratioP1;P1;durP2;ratioP2;P2;SDS_P1;SDS_P2;PMS_P1;PMS_P2;Temp;Humidity;BMP_temperature;BMP_pressure;BME280_temperature;BME280_humidity;BME280_pressure;Samples;Min_cycle;Max_cycle;Signal;HPM_P1;HPM_P2
2023/12/22 00:00:18;;;;;;;0.93;0.93;;;;;;;-1.64;100.00;97003.59;4768611;30;20457;-80
2023/12/22 00:02:48;;;;;;;1.00;1.00;;;;;;;-1.73;100.00;97000.41;4768688;30;20082;-81
2023/12/22 00:05:15;;;;;;;1.00;1.00;;;;;;;-1.70;100.00;96997.31;4768715;29;20423;-81
2023/12/22 00:07:42;;;;;;;0.93;0.93;;;;;;;-1.69;100.00;96998.16;4768082;29;20063;-81
2023/12/22 00:10:10;;;;;;;1.00;1.00;;;;;;;-1.65;100.00;97007.25;4768528;30;20055;-81
2023/12/22 00:12:38;;;;;;;1.00;1.00;;;;;;;-1.70;100.00;96999.97;4768306;30;20051;-81
2023/12/22 00:15:06;;;;;;;1.10;1.10;;;;;;;-1.76;100.00;97003.47;4768439;30;20591;-81
2023/12/22 00:17:33;;;;;;;1.10;1.10;;;;;;;-1.76;100.00;96999.00;4769780;30;20059;-81
2023/12/22 00:20:02;;;;;;;0.98;0.98;;;;;;;-1.79;100.00;96994.16;4772239;30;20098;-82
2023/12/22 00:22:31;;;;;;;1.00;1.00;;;;;;;-1.80;100.00;96995.19;4772041;30;20465;-82
2023/12/22 00:24:58;;;;;;;1.00;1.00;;;;;;;-1.86;100.00;96987.28;4771473;30;20119;-81
2023/12/22 00:27:34;;;;;;;0.95;0.95;;;;;;;-1.87;100.00;96975.91;4768890;30;20150;-81
2023/12/22 00:30:02;;;;;;;0.80;0.80;;;;;;;-1.81;100.00;96982.97;4768938;29;20063;-83
2023/12/22 00:32:31;;;;;;;1.05;1.05;;;;;;;-1.81;100.00;96988.25;4768215;30;20052;-81
2023/12/22 00:34:58;;;;;;;0.98;0.98;;;;;;;-1.82;100.00;96977.91;4768113;30;20055;-81
2023/12/22 00:37:26;;;;;;;1.00;1.00;;;;;;;-1.81;100.00;96990.91;4767813;30;20533;-80
2023/12/22 00:39:53;;;;;;;1.08;1.08;;;;;;;-1.85;100.00;96987.06;4771704;30;20085;-81
2023/12/22 00:42:24;;;;;;;1.02;1.02;;;;;;;-1.86;100.00;96972.22;4773384;30;20102;-82
2023/12/22 00:44:53;;;;;;;1.02;1.02;;;;;;;-1.85;100.00;96981.78;4772807;30;20064;-81
2023/12/22 00:47:20;;;;;;;1.00;1.00;;;;;;;-1.86;100.00;96982.78;4769979;30;20067;-80
2023/12/22 00:49:47;;;;;;;1.00;1.00;;;;;;;-1.89;100.00;96979.78;4768255;30;20051;-81
2023/12/22 00:52:15;;;;;;;1.10;1.10;;;;;;;-1.95;100.00;96968.22;4766990;30;20093;-82
2023/12/22 00:54:42;;;;;;;0.90;0.90;;;;;;;-1.93;100.00;96975.94;4781203;30;20059;-81
2023/12/22 00:57:11;;;;;;;1.10;1.10;;;;;;;-1.91;100.00;96950.09;4767962;30;20056;-81
2023/12/22 00:59:42;;;;;;;1.10;1.10;;;;;;;-1.91;100.00;96968.59;4767796;29;20079;-81
2023/12/22 01:02:12;;;;;;;0.90;0.90;;;;;;;-1.86;100.00;96966.94;4767699;29;20147;-81
2023/12/22 01:04:40;;;;;;;1.02;1.02;;;;;;;-1.84;100.00;96967.53;4767175;30;20074;-81
2023/12/22 01:07:08;;;;;;;1.13;1.13;;;;;;;-1.81;100.00;96967.09;4776534;30;20097;-81
2023/12/22 01:09:37;;;;;;;1.15;1.15;;;;;;;-1.79;100.00;96965.06;4767403;29;20556;-81
2023/12/22 01:12:06;;;;;;;1.00;1.00;;;;;;;-1.73;100.00;96967.84;4767380;30;20055;-81
2023/12/22 01:14:33;;;;;;;0.90;0.90;;;;;;;-1.79;100.00;96951.84;4767193;30;20056;-80
2023/12/22 01:17:01;;;;;;;0.88;0.88;;;;;;;-1.69;100.00;96951.34;4780646;29;20085;-80
2023/12/22 01:19:28;;;;;;;1.13;1.13;;;;;;;-1.62;100.00;96957.41;4766714;30;20484;-81
2023/12/22 01:21:57;;;;;;;0.90;0.90;;;;;;;-1.63;100.00;96960.25;4765788;30;20064;-80
2023/12/22 01:24:24;;;;;;;1.10;1.10;;;;;;;-1.63;100.00;96947.03;4767122;29;20059;-81
2023/12/22 01:26:52;;;;;;;1.10;1.10;;;;;;;-1.58;100.00;96963.06;4767370;30;20175;-81
2023/12/22 01:29:19;;;;;;;1.00;1.00;;;;;;;-1.55;100.00;96960.78;4767442;30;20427;-81
2023/12/22 01:31:46;;;;;;;0.80;0.80;;;;;;;-1.54;100.00;96957.13;4765699;29;20048;-81
2023/12/22 01:34:16;;;;;;;1.00;1.00;;;;;;;-1.50;100.00;96973.34;4766851;29;20582;-82
2023/12/22 01:36:44;;;;;;;1.00;1.00;;;;;;;-1.49;100.00;96956.47;4767184;30;20056;-81
2023/12/22 01:39:11;;;;;;;1.00;1.00;;;;;;;-1.61;100.00;96937.84;4767605;30;20056;-81
2023/12/22 01:41:40;;;;;;;1.00;1.00;;;;;;;-1.46;100.00;96953.38;4766029;29;20059;-81
2023/12/22 01:44:07;;;;;;;1.00;1.00;;;;;;;-1.44;100.00;96955.78;4767052;30;20079;-81
2023/12/22 01:46:35;;;;;;;1.00;1.00;;;;;;;-1.47;100.00;96959.69;4766674;30;20142;-82
2023/12/22 01:49:04;;;;;;;0.90;0.90;;;;;;;-1.48;100.00;96952.78;4765507;30;20058;-81
2023/12/22 01:51:33;;;;;;;1.10;1.10;;;;;;;-1.50;100.00;96938.97;4781541;30;20142;-81
2023/12/22 01:54:00;;;;;;;1.00;1.00;;;;;;;-1.50;100.00;96951.38;4766328;30;20120;-82
2023/12/22 01:56:28;;;;;;;1.10;1.10;;;;;;;-1.52;100.00;96946.28;4766630;29;20086;-82
2023/12/22 01:58:59;;;;;;;0.98;0.98;;;;;;;-1.57;100.00;96936.41;4766601;30;20090;-81
2023/12/22 02:01:30;;;;;;;0.98;0.98;;;;;;;-1.48;100.00;96952.78;4765247;30;20063;-82
2023/12/22 02:04:00;;;;;;;1.10;1.10;;;;;;;-1.46;100.00;96960.50;4779714;30;20523;-81
2023/12/22 02:06:30;;;;;;;1.00;1.00;;;;;;;-1.45;100.00;96952.34;4764965;30;20781;-81
2023/12/22 02:09:00;;;;;;;1.00;1.00;;;;;;;-1.46;100.00;96942.00;4780052;30;20063;-81
2023/12/22 02:11:28;;;;;;;1.00;1.00;;;;;;;-1.48;100.00;96947.50;4780119;29;20059;-81
2023/12/22 02:13:55;;;;;;;0.90;0.90;;;;;;;-1.48;100.00;96947.50;4765242;29;20052;-81
2023/12/22 02:16:34;;;;;;;1.00;1.00;;;;;;;-1.46;100.00;96940.16;4766738;30;20063;-83
2023/12/22 02:19:12;;;;;;;1.00;1.00;;;;;;;-1.48;100.00;96936.09;4766410;30;20151;-81
2023/12/22 02:21:59;;;;;;;1.00;1.00;;;;;;;-1.45;100.00;96941.75;4750430;30;20056;-82
2023/12/22 02:24:30;;;;;;;1.10;1.10;;;;;;;-1.63;100.00;96907.34;4766306;29;20075;-80
2023/12/22 02:27:34;;;;;;;1.10;1.10;;;;;;;-1.53;100.00;96923.53;4766066;30;20059;-81
2023/12/22 02:30:02;;;;;;;1.10;1.10;;;;;;;-1.48;100.00;96934.25;4781438;29;20785;-82
2023/12/22 02:32:37;;;;;;;1.10;1.10;;;;;;;-1.48;100.00;96936.91;4781172;30;20055;-82
2023/12/22 02:35:11;;;;;;;1.10;1.10;;;;;;;-1.46;100.00;96934.84;4781330;30;20096;-81
2023/12/22 02:37:41;;;;;;;0.93;0.93;;;;;;;-1.54;100.00;96921.91;4781198;30;20588;-80
2023/12/22 02:40:09;;;;;;;1.10;1.10;;;;;;;-1.51;100.00;96920.69;4766504;30;20093;-80
2023/12/22 02:42:40;;;;;;;0.95;0.95;;;;;;;-1.50;100.00;96925.72;4781034;30;20077;-79
2023/12/22 02:45:13;;;;;;;1.08;1.08;;;;;;;-1.56;100.00;96908.91;4781394;30;20553;-80
2023/12/22 02:47:41;;;;;;;1.10;1.10;;;;;;;-1.59;100.00;96913.81;4781146;30;20094;-81
2023/12/22 02:50:12;;;;;;;1.00;1.00;;;;;;;-1.58;100.00;96916.25;4781441;29;20307;-82
2023/12/22 02:52:39;;;;;;;1.20;1.20;;;;;;;-1.65;100.00;96904.09;4781231;30;20060;-80
2023/12/22 02:55:07;;;;;;;0.98;0.98;;;;;;;-1.64;100.00;96900.44;4781345;30;20056;-81
2023/12/22 02:57:34;;;;;;;1.10;1.10;;;;;;;-1.68;100.00;96900.06;4781260;30;20057;-81
2023/12/22 03:00:02;;;;;;;1.00;1.00;;;;;;;-1.70;100.00;96898.66;4781615;30;20059;-83
2023/12/22 03:02:31;;;;;;;1.00;1.00;;;;;;;-1.68;100.00;96901.91;4748778;30;20075;-81
2023/12/22 03:04:58;;;;;;;0.98;0.98;;;;;;;-1.68;100.00;96909.84;4763759;30;20553;-80
2023/12/22 03:07:33;;;;;;;0.82;0.82;;;;;;;-1.66;100.00;96913.88;4758920;30;20580;-82
2023/12/22 03:10:02;;;;;;;1.00;1.00;;;;;;;-1.68;100.00;96900.06;4779472;30;20055;-81
2023/12/22 03:12:33;;;;;;;1.10;1.10;;;;;;;-1.69;100.00;96903.75;4766036;30;20062;-82
2023/12/22 03:15:00;;;;;;;1.00;1.00;;;;;;;-1.69;100.00;96903.75;4779744;29;20051;-80
2023/12/22 03:17:31;;;;;;;1.00;1.00;;;;;;;-1.70;100.00;96903.94;4765474;30;20137;-82
2023/12/22 03:19:58;;;;;;;1.00;1.00;;;;;;;-1.75;100.00;96894.00;4765950;29;20499;-82
2023/12/22 03:22:26;;;;;;;1.10;1.10;;;;;;;-1.70;100.00;96902.09;4764388;29;20060;-81
2023/12/22 03:24:53;;;;;;;1.20;1.20;;;;;;;-1.66;100.00;96897.22;4779444;29;20056;-81
2023/12/22 03:27:27;;;;;;;1.10;1.10;;;;;;;-1.64;100.00;96916.31;4748004;30;20064;-82
2023/12/22 03:29:56;;;;;;;1.10;1.10;;;;;;;-1.65;100.00;96904.91;4748345;30;20080;-81
2023/12/22 03:32:24;;;;;;;1.00;1.00;;;;;;;-1.66;100.00;96907.78;4760901;30;20111;-82
2023/12/22 03:34:51;;;;;;;1.10;1.10;;;;;;;-1.66;100.00;96898.00;4761133;30;20051;-81
2023/12/22 03:37:19;;;;;;;1.25;1.20;;;;;;;-1.67;100.00;96909.63;4764414;30;20109;-81
2023/12/22 03:39:46;;;;;;;1.15;1.13;;;;;;;-1.66;100.00;96902.50;4765092;30;20448;-80
2023/12/22 03:42:13;;;;;;;1.10;1.10;;;;;;;-1.66;100.00;96902.50;4767899;30;20090;-82
2023/12/22 03:44:41;;;;;;;1.00;1.00;;;;;;;-1.64;100.00;96889.88;4781085;29;20136;-82
2023/12/22 03:47:08;;;;;;;1.05;1.05;;;;;;;-1.62;100.00;96893.06;4766978;30;20101;-82
2023/12/22 03:49:40;;;;;;;1.10;1.10;;;;;;;-1.70;100.00;96888.88;4765984;30;20463;-82
2023/12/22 03:52:07;;;;;;;0.90;0.90;;;;;;;-1.70;100.00;96880.16;4768604;30;20059;-81
2023/12/22 03:54:35;;;;;;;1.05;1.05;;;;;;;-1.65;100.00;96880.28;4767481;30;20181;-81
2023/12/22 03:57:02;;;;;;;1.00;1.00;;;;;;;-1.64;100.00;96874.00;4767688;29;20060;-81
2023/12/22 03:59:32;;;;;;;0.90;0.90;;;;;;;-1.64;100.00;96871.34;4765531;30;20108;-83
2023/12/22 04:02:01;;;;;;;1.00;1.00;;;;;;;-1.61;100.00;96870.91;4767810;30;20112;-81
2023/12/22 04:04:32;;;;;;;0.95;0.95;;;;;;;-1.62;100.00;96862.16;4767067;30;20052;-81
2023/12/22 04:06:59;;;;;;;1.00;1.00;;;;;;;-1.63;100.00;96863.19;4765369;30;20470;-81
2023/12/22 04:09:27;;;;;;;1.10;1.10;;;;;;;-1.63;100.00;96875.59;4768317;30;20102;-82
2023/12/22 04:11:55;;;;;;;1.10;1.10;;;;;;;-1.65;100.00;96859.13;4768277;29;20077;-82
2023/12/22 04:14:22;;;;;;;0.90;0.90;;;;;;;-1.62;100.00;96862.16;4768319;30;20047;-82
2023/12/22 04:16:50;;;;;;;1.00;1.00;;;;;;;-1.59;100.00;96860.94;4768360;30;20056;-82
2023/12/22 04:19:17;;;;;;;1.00;1.00;;;;;;;-1.64;100.00;96856.28;4768415;30;20095;-83
2023/12/22 04:21:45;;;;;;;1.10;1.10;;;;;;;-1.64;100.00;96858.94;4767923;30;20055;-83
2023/12/22 04:24:15;;;;;;;0.90;0.90;;;;;;;-1.69;100.00;96866.72;4768374;30;20062;-82
2023/12/22 04:26:44;;;;;;;0.90;0.90;;;;;;;-1.72;100.00;96856.56;4781833;29;20048;-83
2023/12/22 04:29:11;;;;;;;0.90;0.90;;;;;;;-1.75;100.00;96868.41;4768339;30;20052;-81
2023/12/22 04:31:42;;;;;;;1.00;1.00;;;;;;;-1.76;100.00;96858.84;4766195;30;20062;-81
2023/12/22 04:34:15;;;;;;;1.10;1.10;;;;;;;-1.75;100.00;96857.81;4765510;30;20062;-82
2023/12/22 04:36:43;;;;;;;1.00;1.00;;;;;;;-1.73;100.00;96851.50;4764507;30;20527;-82
2023/12/22 04:39:22;;;;;;;1.00;1.00;;;;;;;-1.71;100.00;96844.16;4766273;29;20051;-80
2023/12/22 04:42:20;;;;;;;0.93;0.93;;;;;;;-1.70;100.00;96849.22;4767678;30;20446;-81
2023/12/22 04:44:47;;;;;;;1.00;1.00;;;;;;;-1.76;100.00;96845.59;4769317;29;20055;-81
2023/12/22 04:47:19;;;;;;;1.00;1.00;;;;;;;-1.77;100.00;96838.72;4764320;30;20061;-80
2023/12/22 04:50:02;;;;;;;1.10;1.10;;;;;;;-1.79;100.00;96827.53;4769726;30;20051;-82
2023/12/22 04:52:33;;;;;;;0.90;0.90;;;;;;;-1.75;100.00;96835.84;4765700;30;20484;-80
2023/12/22 04:55:00;;;;;;;1.00;1.00;;;;;;;-1.75;100.00;96820.81;4766935;30;20423;-82
2023/12/22 04:57:30;;;;;;;1.10;1.10;;;;;;;-1.72;100.00;96837.22;4766066;30;20492;-81
2023/12/22 04:59:57;;;;;;;0.90;0.90;;;;;;;-1.69;100.00;96834.19;4780234;30;20423;-80
2023/12/22 05:02:25;;;;;;;1.00;1.00;;;;;;;-1.70;100.00;96838.63;4767717;30;20070;-80
2023/12/22 05:04:52;;;;;;;1.00;1.00;;;;;;;-1.72;100.00;96839.88;4767253;29;20168;-80
2023/12/22 05:07:20;;;;;;;0.93;0.93;;;;;;;-1.78;100.00;96837.09;4766495;30;20150;-82
2023/12/22 05:09:54;;;;;;;0.90;0.90;;;;;;;-1.72;100.00;96824.00;4765788;29;20051;-81
2023/12/22 05:12:29;;;;;;;0.88;0.88;;;;;;;-1.68;100.00;96833.13;4765706;30;20060;-81
2023/12/22 05:15:01;;;;;;;1.02;1.02;;;;;;;-1.72;100.00;96830.13;4750668;29;20059;-81
2023/12/22 05:17:34;;;;;;;1.10;1.10;;;;;;;-1.71;100.00;96844.16;4765499;30;20056;-81
2023/12/22 05:20:06;;;;;;;1.00;1.00;;;;;;;-1.69;100.00;96829.69;4766706;29;20056;-81
2023/12/22 05:22:34;;;;;;;0.90;0.90;;;;;;;-1.68;100.00;96828.66;4763803;30;20112;-81
2023/12/22 05:25:03;;;;;;;0.90;0.90;;;;;;;-1.69;100.00;96824.41;4782042;30;20063;-82
2023/12/22 05:27:31;;;;;;;1.00;1.00;;;;;;;-1.64;100.00;96834.31;4767704;30;20487;-81
2023/12/22 05:30:03;;;;;;;0.95;0.95;;;;;;;-1.63;100.00;96841.22;4768674;29;20048;-82
2023/12/22 05:32:32;;;;;;;0.95;0.95;;;;;;;-1.64;100.00;96831.69;4761425;30;20047;-81
2023/12/22 05:35:00;;;;;;;1.10;1.10;;;;;;;-1.63;100.00;96838.56;4765656;29;20083;-80
2023/12/22 05:37:30;;;;;;;1.00;1.00;;;;;;;-1.63;100.00;96849.16;4765448;29;20549;-80
2023/12/22 05:39:57;;;;;;;1.02;1.02;;;;;;;-1.65;100.00;96846.72;4764661;30;20811;-81
2023/12/22 05:42:25;;;;;;;0.90;0.90;;;;;;;-1.62;100.00;96861.34;4765313;29;20139;-81
2023/12/22 05:44:53;;;;;;;1.00;1.00;;;;;;;-1.66;100.00;96839.81;4765762;30;20075;-81
2023/12/22 05:47:21;;;;;;;1.20;1.20;;;;;;;-1.71;100.00;96852.09;4765228;30;20113;-81
2023/12/22 05:49:49;;;;;;;1.00;1.00;;;;;;;-1.75;100.00;96834.03;4765578;30;20218;-81
2023/12/22 05:52:20;;;;;;;1.17;1.17;;;;;;;-1.75;100.00;96844.59;4765014;29;20071;-80
2023/12/22 05:54:59;;;;;;;1.13;1.13;;;;;;;-1.75;100.00;96836.66;4762768;30;20638;-81
2023/12/22 05:57:30;;;;;;;1.27;1.20;;;;;;;-1.67;100.00;96845.31;4764286;30;20047;-81
2023/12/22 05:59:58;;;;;;;1.02;1.02;;;;;;;-1.66;100.00;96844.31;4765125;30;20071;-81
2023/12/22 06:02:26;;;;;;;1.10;1.10;;;;;;;-1.64;100.00;96839.63;4764380;30;20059;-80
2023/12/22 06:04:53;;;;;;;1.00;1.00;;;;;;;-1.64;100.00;96850.19;4778879;29;20057;-80
2023/12/22 06:07:26;;;;;;;1.00;1.00;;;;;;;-1.64;100.00;96853.63;4765448;29;20067;-82
2023/12/22 06:09:54;;;;;;;1.10;1.10;;;;;;;-1.62;100.00;96850.75;4764663;30;20059;-81
2023/12/22 06:12:21;;;;;;;0.95;0.95;;;;;;;-1.60;100.00;96856.66;4778537;30;20427;-81
2023/12/22 06:14:48;;;;;;;1.05;1.05;;;;;;;-1.63;100.00;96834.09;4765396;29;20051;-81
2023/12/22 06:17:15;;;;;;;1.00;1.00;;;;;;;-1.59;100.00;96860.94;4765309;30;20625;-82
2023/12/22 06:19:45;;;;;;;1.30;1.20;;;;;;;-1.66;100.00;96844.31;4764972;30;20549;-81
2023/12/22 06:22:13;;;;;;;1.27;1.17;;;;;;;-1.61;100.00;96847.91;4765666;30;20055;-80
2023/12/22 06:24:43;;;;;;;1.00;1.00;;;;;;;-1.54;100.00;96853.13;4765309;30;20063;-81
2023/12/22 06:27:10;;;;;;;1.00;1.00;;;;;;;-1.57;100.00;96848.25;4765280;30;20051;-79
2023/12/22 06:29:38;;;;;;;1.00;1.00;;;;;;;-1.51;100.00;96857.19;4764938;30;20695;-81
2023/12/22 06:32:06;;;;;;;1.20;1.15;;;;;;;-1.54;100.00;96850.50;4762948;30;20062;-80
2023/12/22 06:34:33;;;;;;;1.00;1.00;;;;;;;-1.56;100.00;96856.00;4765020;29;20075;-80
2023/12/22 06:37:03;;;;;;;1.10;1.10;;;;;;;-1.57;100.00;96864.13;4763572;30;20062;-80
2023/12/22 06:39:31;;;;;;;1.10;1.10;;;;;;;-1.56;100.00;96853.34;4761800;29;20055;-80
2023/12/22 06:41:58;;;;;;;1.00;1.00;;;;;;;-1.53;100.00;96854.75;4764086;30;20146;-79
2023/12/22 06:44:29;;;;;;;0.90;0.90;;;;;;;-1.45;100.00;96866.88;4754832;30;20051;-81
2023/12/22 06:46:57;;;;;;;0.98;0.98;;;;;;;-1.44;100.00;96858.72;4762929;30;20059;-82
2023/12/22 06:49:25;;;;;;;1.00;1.00;;;;;;;-1.42;100.00;96861.97;4764537;30;20055;-80
2023/12/22 06:51:52;;;;;;;1.05;1.05;;;;;;;-1.41;100.00;96866.22;4764545;29;20101;-79
2023/12/22 06:54:21;;;;;;;1.23;1.20;;;;;;;-1.42;100.00;96851.38;4764863;30;20054;-81
2023/12/22 06:56:49;;;;;;;1.00;1.00;;;;;;;-1.37;100.00;96854.16;4762154;30;20059;-81
2023/12/22 06:59:17;;;;;;;0.90;0.90;;;;;;;-1.34;100.00;96856.38;4763562;30;20054;-81
2023/12/22 07:01:49;;;;;;;1.08;1.08;;;;;;;-1.30;100.00;96859.38;4763194;29;20055;-81
2023/12/22 07:05:25;;;;;;;1.00;1.00;;;;;;;-1.18;100.00;96852.31;4764334;30;20052;-80
2023/12/22 07:07:54;;;;;;;1.00;1.00;;;;;;;-1.21;100.00;96847.47;4738435;30;20048;-80
2023/12/22 07:10:22;;;;;;;1.00;1.00;;;;;;;-1.16;100.00;96860.84;4743442;30;20444;-81
2023/12/22 07:12:49;;;;;;;0.98;0.98;;;;;;;-1.13;100.00;96870.19;4739575;30;20052;-81
2023/12/22 07:15:17;;;;;;;1.23;1.20;;;;;;;-1.10;100.00;96862.59;4738294;30;20609;-81
2023/12/22 07:17:44;;;;;;;1.00;1.00;;;;;;;-1.06;99.99;96859.50;4741225;30;20529;-80
2023/12/22 07:20:12;;;;;;;1.00;1.00;;;;;;;-1.08;99.64;96857.09;4745439;30;20064;-81
2023/12/22 07:22:42;;;;;;;1.00;1.00;;;;;;;-0.94;99.49;96853.25;4745298;30;20044;-81
2023/12/22 07:25:11;;;;;;;0.93;0.93;;;;;;;-0.99;99.07;96850.44;4746166;30;20064;-82
2023/12/22 07:27:41;;;;;;;0.98;0.98;;;;;;;-0.99;99.22;96845.13;4732507;30;20106;-81
2023/12/22 07:30:11;;;;;;;1.00;1.00;;;;;;;-1.01;99.51;96854.34;4747633;30;20056;-80
2023/12/22 07:32:47;;;;;;;1.10;1.10;;;;;;;-1.09;99.02;96836.91;4747679;30;20585;-81
2023/12/22 07:35:15;;;;;;;1.00;1.00;;;;;;;-1.18;98.75;96854.97;4748624;30;20129;-81
2023/12/22 07:37:45;;;;;;;1.10;1.10;;;;;;;-1.21;98.85;96842.16;4747955;30;20074;-82
2023/12/22 07:40:12;;;;;;;1.00;1.00;;;;;;;-1.17;98.43;96847.81;4748018;30;20052;-82
2023/12/22 07:42:40;;;;;;;1.10;1.10;;;;;;;-1.21;98.28;96846.66;4747741;30;20048;-81
2023/12/22 07:45:09;;;;;;;0.80;0.80;;;;;;;-1.24;98.06;96844.44;4765178;30;20051;-81
2023/12/22 07:47:40;;;;;;;1.30;1.20;;;;;;;-1.25;98.25;96841.00;4766989;30;20142;-82
2023/12/22 07:50:08;;;;;;;1.00;1.00;;;;;;;-1.24;97.76;96842.63;4766939;29;20054;-82
2023/12/22 07:52:39;;;;;;;1.10;1.10;;;;;;;-1.21;97.87;96844.03;4768344;30;20497;-82
2023/12/22 07:55:11;;;;;;;1.08;1.08;;;;;;;-1.03;97.65;96838.69;4780507;30;20139;-81
2023/12/22 07:57:47;;;;;;;1.10;1.10;;;;;;;-0.90;96.77;96827.91;4767086;29;20044;-81
2023/12/22 08:00:18;;;;;;;1.00;1.00;;;;;;;-0.91;95.73;96815.72;4767047;30;20051;-82
2023/12/22 08:02:45;;;;;;;1.10;1.10;;;;;;;-0.81;95.75;96823.13;4766821;29;20152;-82
2023/12/22 08:05:13;;;;;;;1.20;1.20;;;;;;;-0.87;95.28;96822.16;4766469;30;20048;-84
2023/12/22 08:07:41;;;;;;;1.30;1.20;;;;;;;-0.71;95.24;96817.25;4765881;30;20675;-80
2023/12/22 08:10:08;;;;;;;1.00;1.00;;;;;;;-0.40;93.98;96810.09;4779471;30;20702;-81
2023/12/22 08:12:36;;;;;;;1.10;1.10;;;;;;;-0.31;92.58;96804.22;4779780;30;20138;-80
2023/12/22 08:15:07;;;;;;;1.30;1.20;;;;;;;-0.27;92.01;96797.44;4765689;30;20055;-80
2023/12/22 08:17:35;;;;;;;1.15;1.15;;;;;;;-0.25;91.57;96802.50;4765975;30;20117;-80
2023/12/22 08:20:04;;;;;;;1.30;1.20;;;;;;;0.07;91.04;96804.81;4765863;30;20048;-80
2023/12/22 08:22:44;;;;;;;0.93;0.93;;;;;;;0.49;89.10;96794.06;4765401;30;21035;-79
2023/12/22 08:25:17;;;;;;;1.20;1.17;;;;;;;0.75;88.24;96790.84;4766663;30;20059;-81
2023/12/22 08:27:45;;;;;;;1.02;1.02;;;;;;;0.85;86.42;96796.38;4764058;30;20051;-80
2023/12/22 08:30:14;;;;;;;1.30;1.20;;;;;;;0.85;85.74;96783.09;4766652;30;20054;-78
2023/12/22 08:32:41;;;;;;;1.10;1.10;;;;;;;1.12;85.33;96785.19;4764662;29;20457;-80
2023/12/22 08:35:09;;;;;;;1.13;1.13;;;;;;;1.36;83.93;96790.38;4766117;29;20063;-80
2023/12/22 08:37:37;;;;;;;0.90;0.90;;;;;;;1.53;82.78;96764.63;4763678;30;20188;-80
2023/12/22 08:40:05;;;;;;;1.27;1.20;;;;;;;1.72;81.19;96771.31;4765394;30;20055;-79
2023/12/22 08:42:33;;;;;;;1.30;1.20;;;;;;;2.21;80.08;96764.56;4766335;30;20051;-80
2023/12/22 08:45:05;;;;;;;1.38;1.27;;;;;;;2.64;78.09;96771.78;4765545;30;20146;-80
2023/12/22 08:47:33;;;;;;;1.50;1.40;;;;;;;3.09;76.10;96752.03;4756310;30;20868;-79
2023/12/22 08:50:04;;;;;;;1.27;1.20;;;;;;;2.93;74.56;96756.38;4761460;30;20488;-81
2023/12/22 08:52:31;;;;;;;1.17;1.17;;;;;;;2.91;74.48;96761.16;4761649;30;20051;-81
2023/12/22 08:54:59;;;;;;;1.30;1.20;;;;;;;2.96;73.70;96766.56;4767678;30;20060;-81
2023/12/22 08:57:27;;;;;;;1.23;1.20;;;;;;;2.99;73.76;96752.72;4767075;30;20067;-79
2023/12/22 08:59:55;;;;;;;1.10;1.10;;;;;;;2.94;74.13;96752.66;4765933;30;20063;-80
2023/12/22 09:02:22;;;;;;;1.13;1.13;;;;;;;3.20;73.47;96761.72;4766005;29;20040;-82
2023/12/22 09:04:53;;;;;;;1.30;1.20;;;;;;;3.30;72.09;96755.69;4766410;30;20614;-82
2023/12/22 09:07:22;;;;;;;1.40;1.30;;;;;;;3.62;70.85;96753.03;4764486;30;20121;-79
2023/12/22 09:09:50;;;;;;;1.10;1.10;;;;;;;3.96;70.46;96758.06;4764773;30;20063;-80
2023/12/22 09:12:17;;;;;;;1.40;1.30;;;;;;;4.20;68.19;96765.69;4762741;30;20469;-80
2023/12/22 09:14:45;;;;;;;1.10;1.10;;;;;;;3.96;67.87;96754.59;4763821;30;20056;-81
2023/12/22 09:17:13;;;;;;;1.30;1.20;;;;;;;4.19;67.62;96756.88;4768269;30;20113;-80
2023/12/22 09:19:42;;;;;;;1.15;1.13;;;;;;;4.29;66.50;96758.81;4765108;30;20056;-80
2023/12/22 09:22:09;;;;;;;1.40;1.30;;;;;;;4.38;66.12;96745.75;4765375;30;20487;-81
2023/12/22 09:24:37;;;;;;;1.30;1.20;;;;;;;4.36;65.81;96746.03;4763895;30;20142;-80
2023/12/22 09:27:09;;;;;;;1.30;1.20;;;;;;;4.29;65.39;96758.81;4765030;30;20059;-80
2023/12/22 09:29:38;;;;;;;1.30;1.20;;;;;;;4.22;65.05;96750.22;4760946;30;20063;-80
2023/12/22 09:32:07;;;;;;;1.10;1.10;;;;;;;4.01;65.26;96757.31;4761911;30;20462;-80
2023/12/22 09:34:34;;;;;;;1.30;1.20;;;;;;;3.71;66.13;96740.00;4765672;30;20047;-82
2023/12/22 09:37:01;;;;;;;1.10;1.10;;;;;;;3.34;66.17;96727.47;4778296;29;20071;-81
2023/12/22 09:39:35;;;;;;;1.40;1.30;;;;;;;3.07;67.40;96743.47;4761797;30;20150;-80
2023/12/22 09:42:05;;;;;;;1.10;1.10;;;;;;;3.03;67.86;96737.03;4763731;30;20113;-81
2023/12/22 09:44:35;;;;;;;1.10;1.10;;;;;;;2.51;68.62;96737.53;4765658;30;20455;-81
2023/12/22 09:47:05;;;;;;;1.30;1.20;;;;;;;2.47;70.01;96739.06;4765997;30;20147;-82
2023/12/22 09:49:34;;;;;;;1.23;1.20;;;;;;;2.58;69.78;96738.97;4765201;30;20083;-83
2023/12/22 09:52:05;;;;;;;1.25;1.15;;;;;;;2.79;69.38;96739.97;4767542;29;20060;-82
2023/12/22 09:54:34;;;;;;;1.13;1.13;;;;;;;2.87;68.69;96752.06;4774233;29;20396;-81
2023/12/22 09:57:03;;;;;;;1.10;1.10;;;;;;;2.62;68.56;96741.13;4765386;30;20101;-83
2023/12/22 09:59:49;;;;;;;1.30;1.20;;;;;;;2.68;68.61;96737.44;4777193;29;20079;-87
2023/12/22 10:02:17;;;;;;;1.13;1.10;;;;;;;2.80;68.53;96720.28;4759067;30;20070;-87
2023/12/22 10:04:45;;;;;;;1.15;1.10;;;;;;;3.12;68.33;96724.06;4766154;30;20178;-84
2023/12/22 10:07:14;;;;;;;1.13;1.13;;;;;;;3.09;68.03;96732.53;4777511;30;20054;-83
2023/12/22 10:09:42;;;;;;;1.10;1.10;;;;;;;2.92;68.13;96717.47;4763940;30;20544;-82
2023/12/22 10:12:11;;;;;;;1.10;1.10;;;;;;;2.62;68.29;96706.50;4747835;30;20052;-82
2023/12/22 10:14:39;;;;;;;1.10;1.10;;;;;;;2.52;69.50;96721.28;4764089;30;20146;-84
2023/12/22 10:17:07;;;;;;;1.10;1.10;;;;;;;2.29;69.64;96711.72;4764601;30;20062;-83
2023/12/22 10:19:35;;;;;;;1.08;1.08;;;;;;;1.82;72.11;96709.47;4765273;29;20066;-83
2023/12/22 10:22:03;;;;;;;1.08;1.08;;;;;;;1.51;74.78;96709.03;4765051;30;20059;-85
2023/12/22 10:24:44;;;;;;;1.00;1.00;;;;;;;1.34;76.68;96707.41;4768256;30;20055;-84
2023/12/22 10:27:14;;;;;;;1.10;1.10;;;;;;;1.10;77.87;96706.78;4768501;30;20052;-84
2023/12/22 10:29:44;;;;;;;1.10;1.10;;;;;;;0.77;78.77;96693.19;4768432;30;20262;-84
2023/12/22 10:32:13;;;;;;;1.00;1.00;;;;;;;0.68;80.00;96709.75;4779733;29;20668;-85
2023/12/22 10:34:43;;;;;;;0.90;0.90;;;;;;;0.48;80.33;96704.84;4765963;29;20047;-85
2023/12/22 10:37:13;;;;;;;1.10;1.10;;;;;;;0.34;80.70;96707.78;4766093;30;20052;-84
2023/12/22 10:39:48;;;;;;;1.00;1.00;;;;;;;0.13;80.79;96682.69;4765630;30;20056;-84
2023/12/22 10:42:18;;;;;;;0.95;0.95;;;;;;;0.01;81.43;96686.41;4766074;30;20087;-85
2023/12/22 10:44:46;;;;;;;1.00;1.00;;;;;;;0.10;81.79;96703.56;4766243;29;20143;-85
2023/12/22 10:47:21;;;;;;;1.10;1.10;;;;;;;-0.02;82.04;96696.44;4764604;30;20048;-83
2023/12/22 10:49:51;;;;;;;1.05;1.05;;;;;;;-0.15;82.39;96685.25;4767485;29;20066;-84
2023/12/22 10:52:21;;;;;;;1.10;1.10;;;;;;;-0.21;82.49;96684.34;4785394;30;20056;-84
2023/12/22 10:54:49;;;;;;;1.00;1.00;;;;;;;-0.33;82.78;96688.84;4770094;30;20109;-83
2023/12/22 10:57:23;;;;;;;1.02;1.02;;;;;;;-0.32;83.63;96680.69;4784049;30;20056;-84
2023/12/22 10:59:51;;;;;;;1.15;1.15;;;;;;;-0.02;83.05;96693.78;4769646;30;20052;-85
2023/12/22 11:02:28;;;;;;;1.00;1.00;;;;;;;0.12;82.21;96688.22;4766100;29;20567;-84
2023/12/22 11:05:07;;;;;;;1.20;1.20;;;;;;;0.13;81.72;96681.91;4781033;29;20060;-85
2023/12/22 11:07:37;;;;;;;0.90;0.90;;;;;;;0.06;81.93;96674.06;4762337;30;20062;-85
2023/12/22 11:10:06;;;;;;;0.80;0.80;;;;;;;-0.03;82.34;96678.91;4783441;29;20146;-85
2023/12/22 11:12:38;;;;;;;0.80;0.80;;;;;;;-0.16;82.75;96670.41;4769875;30;20059;-85
2023/12/22 11:15:06;;;;;;;1.10;1.10;;;;;;;-0.16;83.00;96689.78;4769954;30;20055;-85
2023/12/22 11:17:45;;;;;;;1.10;1.10;;;;;;;-0.25;83.08;96676.06;4770126;30;20067;-85
2023/12/22 11:20:13;;;;;;;1.00;1.00;;;;;;;-0.40;83.60;96661.69;4769991;30;20055;-84
2023/12/22 11:22:42;;;;;;;1.17;1.17;;;;;;;-0.55;84.09;96647.06;4769627;30;20117;-85
2023/12/22 11:25:10;;;;;;;1.00;1.00;;;;;;;-0.50;84.43;96678.97;4769261;30;20115;-84
2023/12/22 11:27:44;;;;;;;1.10;1.10;;;;;;;-0.72;84.92;96664.69;4782777;29;20184;-84
2023/12/22 11:30:14;;;;;;;1.10;1.10;;;;;;;-0.72;85.23;96680.56;4769933;30;20146;-84
2023/12/22 11:32:44;;;;;;;1.00;1.00;;;;;;;-0.82;86.03;96667.09;4769729;30;20066;-85
2023/12/22 11:35:11;;;;;;;1.10;1.10;;;;;;;-0.97;86.58;96652.44;4768704;30;20054;-85
2023/12/22 11:37:42;;;;;;;1.00;1.00;;;;;;;-0.96;86.93;96653.25;4769584;30;20055;-85
2023/12/22 11:40:11;;;;;;;1.00;1.00;;;;;;;-0.91;87.30;96662.13;4783690;30;20059;-85